sensor_id;sensor_type;location;lat;lon;timestamp;temperature;humidity
8593;DHT22;4334;49.982;8.398;2023-07-31T00:01:06;18.00;99.90
8593;DHT22;4334;49.982;8.398;2023-07-31T00:03:33;18.00;99.90
8593;DHT22;4334;49.982;8.398;2023-07-31T00:05:59;18.00;99.90
8593;DHT22;4334;49.982;8.398;2023-07-31T00:08:26;18.10;99.90
8593;DHT22;4334;49.982;8.398;2023-07-31T00:10:54;18.10;99.90
8593;DHT22;4334;49.982;8.398;2023-07-31T00:13:21;18.10;99.90
8593;DHT22;4334;49.982;8.398;2023-07-31T00:15:47;18.00;99.90
8593;DHT22;4334;49.982;8.398;2023-07-31T00:18:14;18.10;99.90
8593;DHT22;4334;49.982;8.398;2023-07-31T00:20:41;18.10;99.90
8593;DHT22;4334;49.982;8.398;2023-07-31T00:23:08;18.20;99.90
8593;DHT22;4334;49.982;8.398;2023-07-31T00:25:35;18.10;99.90
8593;DHT22;4334;49.982;8.398;2023-07-31T00:28:03;18.10;99.90
8593;DHT22;4334;49.982;8.398;2023-07-31T00:30:30;18.10;99.90
8593;DHT22;4334;49.982;8.398;2023-07-31T00:32:56;18.10;99.90
8593;DHT22;4334;49.982;8.398;2023-07-31T00:35:23;16.10;99.90
8593;DHT22;4334;49.982;8.398;2023-07-31T00:37:50;18.20;99.90
8593;DHT22;4334;49.982;8.398;2023-07-31T00:40:17;18.00;99.90
8593;DHT22;4334;49.982;8.398;2023-07-31T00:42:44;18.10;99.90
8593;DHT22;4334;49.982;8.398;2023-07-31T00:45:12;18.10;99.90
8593;DHT22;4334;49.982;8.398;2023-07-31T00:47:39;18.10;99.90
8593;DHT22;4334;49.982;8.398;2023-07-31T00:50:07;18.00;99.90
8593;DHT22;4334;49.982;8.398;2023-07-31T00:52:35;17.30;99.90
8593;DHT22;4334;49.982;8.398;2023-07-31T00:55:02;18.00;99.90
8593;DHT22;4334;49.982;8.398;2023-07-31T00:57:31;18.10;99.90
8593;DHT22;4334;49.982;8.398;2023-07-31T00:59:58;18.50;99.90
8593;DHT22;4334;49.982;8.398;2023-07-31T01:02:26;18.20;99.90
8593;DHT22;4334;49.982;8.398;2023-07-31T01:04:53;18.10;99.90
8593;DHT22;4334;49.982;8.398;2023-07-31T01:07:24;18.10;99.90
8593;DHT22;4334;49.982;8.398;2023-07-31T01:09:57;18.20;99.90
8593;DHT22;4334;49.982;8.398;2023-07-31T01:12:27;18.20;99.90
8593;DHT22;4334;49.982;8.398;2023-07-31T01:15:03;18.20;99.90
8593;DHT22;4334;49.982;8.398;2023-07-31T01:17:32;18.20;99.90
8593;DHT22;4334;49.982;8.398;2023-07-31T01:20:01;18.20;99.90
8593;DHT22;4334;49.982;8.398;2023-07-31T01:22:41;21.90;99.90
8593;DHT22;4334;49.982;8.398;2023-07-31T01:25:20;18.10;99.90
8593;DHT22;4334;49.982;8.398;2023-07-31T01:27:56;18.10;99.90
8593;DHT22;4334;49.982;8.398;2023-07-31T01:30:26;18.10;99.90
8593;DHT22;4334;49.982;8.398;2023-07-31T01:32:56;18.00;99.90
8593;DHT22;4334;49.982;8.398;2023-07-31T01:35:24;18.10;99.90
8593;DHT22;4334;49.982;8.398;2023-07-31T01:37:52;18.10;99.90
8593;DHT22;4334;49.982;8.398;2023-07-31T01:40:19;18.10;99.90
8593;DHT22;4334;49.982;8.398;2023-07-31T01:42:46;18.20;99.90
8593;DHT22;4334;49.982;8.398;2023-07-31T01:45:14;18.20;99.90
8593;DHT22;4334;49.982;8.398;2023-07-31T01:47:41;18.30;99.90
8593;DHT22;4334;49.982;8.398;2023-07-31T01:50:08;18.20;99.90
8593;DHT22;4334;49.982;8.398;2023-07-31T01:52:36;18.20;99.90
8593;DHT22;4334;49.982;8.398;2023-07-31T01:55:03;18.20;99.90
8593;DHT22;4334;49.982;8.398;2023-07-31T01:57:33;18.20;99.90
8593;DHT22;4334;49.982;8.398;2023-07-31T02:00:00;18.30;99.90
8593;DHT22;4334;49.982;8.398;2023-07-31T02:02:28;18.30;99.90
8593;DHT22;4334;49.982;8.398;2023-07-31T02:04:54;18.30;99.90
8593;DHT22;4334;49.982;8.398;2023-07-31T02:07:21;21.10;99.90
8593;DHT22;4334;49.982;8.398;2023-07-31T02:09:48;18.40;99.90
8593;DHT22;4334;49.982;8.398;2023-07-31T02:12:15;18.50;99.90
8593;DHT22;4334;49.982;8.398;2023-07-31T02:14:42;18.50;99.90
8593;DHT22;4334;49.982;8.398;2023-07-31T02:17:09;18.50;99.90
8593;DHT22;4334;49.982;8.398;2023-07-31T02:19:37;18.50;99.90
8593;DHT22;4334;49.982;8.398;2023-07-31T02:22:04;19.10;99.90
8593;DHT22;4334;49.982;8.398;2023-07-31T02:24:31;18.60;99.90
8593;DHT22;4334;49.982;8.398;2023-07-31T02:26:58;18.60;99.90
8593;DHT22;4334;49.982;8.398;2023-07-31T02:29:24;18.60;99.90
8593;DHT22;4334;49.982;8.398;2023-07-31T02:31:51;18.60;99.90
8593;DHT22;4334;49.982;8.398;2023-07-31T02:34:18;18.50;99.90
8593;DHT22;4334;49.982;8.398;2023-07-31T02:36:46;18.60;99.90
8593;DHT22;4334;49.982;8.398;2023-07-31T02:39:13;18.60;99.90
8593;DHT22;4334;49.982;8.398;2023-07-31T02:41:39;18.50;99.90
8593;DHT22;4334;49.982;8.398;2023-07-31T02:44:06;18.50;99.90
8593;DHT22;4334;49.982;8.398;2023-07-31T02:46:33;18.50;99.90
8593;DHT22;4334;49.982;8.398;2023-07-31T02:48:59;18.50;99.90
8593;DHT22;4334;49.982;8.398;2023-07-31T02:51:26;18.50;99.90
8593;DHT22;4334;49.982;8.398;2023-07-31T02:53:54;18.50;99.90
8593;DHT22;4334;49.982;8.398;2023-07-31T02:56:21;18.50;99.90
8593;DHT22;4334;49.982;8.398;2023-07-31T02:58:48;18.50;99.90
8593;DHT22;4334;49.982;8.398;2023-07-31T03:01:14;18.50;99.90
8593;DHT22;4334;49.982;8.398;2023-07-31T03:03:41;18.50;99.90
8593;DHT22;4334;49.982;8.398;2023-07-31T03:06:08;18.40;99.90
8593;DHT22;4334;49.982;8.398;2023-07-31T03:08:35;18.40;99.90
8593;DHT22;4334;49.982;8.398;2023-07-31T03:11:03;18.40;99.90
8593;DHT22;4334;49.982;8.398;2023-07-31T03:13:30;18.30;99.90
8593;DHT22;4334;49.982;8.398;2023-07-31T03:15:56;18.20;99.90
8593;DHT22;4334;49.982;8.398;2023-07-31T03:18:23;21.60;99.90
8593;DHT22;4334;49.982;8.398;2023-07-31T03:20:53;18.10;99.90
8593;DHT22;4334;49.982;8.398;2023-07-31T03:23:19;18.00;99.90
8593;DHT22;4334;49.982;8.398;2023-07-31T03:25:56;17.90;99.90
8593;DHT22;4334;49.982;8.398;2023-07-31T03:28:25;18.00;99.90
8593;DHT22;4334;49.982;8.398;2023-07-31T03:30:52;17.90;99.90
8593;DHT22;4334;49.982;8.398;2023-07-31T03:33:19;17.90;99.90
8593;DHT22;4334;49.982;8.398;2023-07-31T03:35:45;18.00;99.90
8593;DHT22;4334;49.982;8.398;2023-07-31T03:38:12;20.10;99.90
8593;DHT22;4334;49.982;8.398;2023-07-31T03:40:39;17.90;99.90
8593;DHT22;4334;49.982;8.398;2023-07-31T03:43:06;17.90;99.90
8593;DHT22;4334;49.982;8.398;2023-07-31T03:45:34;17.90;99.90
8593;DHT22;4334;49.982;8.398;2023-07-31T03:48:00;17.90;99.90
8593;DHT22;4334;49.982;8.398;2023-07-31T03:50:27;17.90;99.90
8593;DHT22;4334;49.982;8.398;2023-07-31T03:52:54;17.90;99.90
8593;DHT22;4334;49.982;8.398;2023-07-31T03:55:21;17.90;99.90
8593;DHT22;4334;49.982;8.398;2023-07-31T03:57:48;17.90;99.90
8593;DHT22;4334;49.982;8.398;2023-07-31T04:00:15;17.80;99.90
8593;DHT22;4334;49.982;8.398;2023-07-31T04:02:43;18.20;99.90
8593;DHT22;4334;49.982;8.398;2023-07-31T04:05:10;17.70;99.90
8593;DHT22;4334;49.982;8.398;2023-07-31T04:07:37;21.20;99.90
8593;DHT22;4334;49.982;8.398;2023-07-31T04:10:16;17.60;99.90
8593;DHT22;4334;49.982;8.398;2023-07-31T04:12:42;17.60;99.90
8593;DHT22;4334;49.982;8.398;2023-07-31T04:15:12;17.60;99.90
8593;DHT22;4334;49.982;8.398;2023-07-31T04:17:39;17.60;99.90
8593;DHT22;4334;49.982;8.398;2023-07-31T04:20:08;17.50;99.90
8593;DHT22;4334;49.982;8.398;2023-07-31T04:22:36;17.60;99.90
8593;DHT22;4334;49.982;8.398;2023-07-31T04:25:03;17.60;99.90
8593;DHT22;4334;49.982;8.398;2023-07-31T04:27:30;18.60;99.90
8593;DHT22;4334;49.982;8.398;2023-07-31T04:29:56;17.50;99.90
8593;DHT22;4334;49.982;8.398;2023-07-31T04:32:23;17.50;99.90
8593;DHT22;4334;49.982;8.398;2023-07-31T04:34:50;17.50;99.90
8593;DHT22;4334;49.982;8.398;2023-07-31T04:37:18;17.50;99.90
8593;DHT22;4334;49.982;8.398;2023-07-31T04:39:45;17.50;99.90
8593;DHT22;4334;49.982;8.398;2023-07-31T04:42:11;17.50;99.90
8593;DHT22;4334;49.982;8.398;2023-07-31T04:44:38;17.60;99.90
8593;DHT22;4334;49.982;8.398;2023-07-31T04:47:05;22.10;99.90
8593;DHT22;4334;49.982;8.398;2023-07-31T04:49:32;17.50;99.90
8593;DHT22;4334;49.982;8.398;2023-07-31T04:51:58;17.60;99.90
8593;DHT22;4334;49.982;8.398;2023-07-31T04:54:27;17.70;99.90
8593;DHT22;4334;49.982;8.398;2023-07-31T04:56:53;17.80;99.90
8593;DHT22;4334;49.982;8.398;2023-07-31T04:59:20;17.80;99.90
8593;DHT22;4334;49.982;8.398;2023-07-31T05:01:47;17.80;99.90
8593;DHT22;4334;49.982;8.398;2023-07-31T05:04:14;17.90;99.90
8593;DHT22;4334;49.982;8.398;2023-07-31T05:06:41;17.90;99.90
8593;DHT22;4334;49.982;8.398;2023-07-31T05:09:08;18.00;99.90
8593;DHT22;4334;49.982;8.398;2023-07-31T05:11:37;17.90;99.90
8593;DHT22;4334;49.982;8.398;2023-07-31T05:14:05;17.90;99.90
8593;DHT22;4334;49.982;8.398;2023-07-31T05:16:33;18.00;99.90
8593;DHT22;4334;49.982;8.398;2023-07-31T05:18:59;18.10;99.90
8593;DHT22;4334;49.982;8.398;2023-07-31T05:21:26;18.10;99.90
8593;DHT22;4334;49.982;8.398;2023-07-31T05:23:53;18.10;99.90
8593;DHT22;4334;49.982;8.398;2023-07-31T05:26:19;18.20;99.90
8593;DHT22;4334;49.982;8.398;2023-07-31T05:28:47;18.20;99.90
8593;DHT22;4334;49.982;8.398;2023-07-31T05:31:14;18.20;99.90
8593;DHT22;4334;49.982;8.398;2023-07-31T05:33:41;18.20;99.90
8593;DHT22;4334;49.982;8.398;2023-07-31T05:36:08;20.80;99.90
8593;DHT22;4334;49.982;8.398;2023-07-31T05:38:34;18.10;99.90
8593;DHT22;4334;49.982;8.398;2023-07-31T05:41:01;19.50;99.90
8593;DHT22;4334;49.982;8.398;2023-07-31T05:43:28;18.10;99.90
8593;DHT22;4334;49.982;8.398;2023-07-31T05:45:56;18.00;99.90
8593;DHT22;4334;49.982;8.398;2023-07-31T05:48:22;18.20;99.90
8593;DHT22;4334;49.982;8.398;2023-07-31T05:50:49;18.10;99.90
8593;DHT22;4334;49.982;8.398;2023-07-31T05:53:16;18.20;99.90
8593;DHT22;4334;49.982;8.398;2023-07-31T05:55:43;18.30;99.90
8593;DHT22;4334;49.982;8.398;2023-07-31T05:58:10;21.70;99.90
8593;DHT22;4334;49.982;8.398;2023-07-31T06:00:37;19.40;99.90
8593;DHT22;4334;49.982;8.398;2023-07-31T06:03:05;18.50;99.90
8593;DHT22;4334;49.982;8.398;2023-07-31T06:05:31;22.80;99.90
8593;DHT22;4334;49.982;8.398;2023-07-31T06:07:58;22.50;99.90
8593;DHT22;4334;49.982;8.398;2023-07-31T06:10:25;18.70;99.90
8593;DHT22;4334;49.982;8.398;2023-07-31T06:12:52;18.80;99.90
8593;DHT22;4334;49.982;8.398;2023-07-31T06:15:19;18.90;99.90
8593;DHT22;4334;49.982;8.398;2023-07-31T06:17:46;19.40;99.90
8593;DHT22;4334;49.982;8.398;2023-07-31T06:20:14;19.80;99.90
8593;DHT22;4334;49.982;8.398;2023-07-31T06:22:41;21.80;99.90
8593;DHT22;4334;49.982;8.398;2023-07-31T06:25:08;19.80;99.90
8593;DHT22;4334;49.982;8.398;2023-07-31T06:27:36;23.70;99.90
8593;DHT22;4334;49.982;8.398;2023-07-31T06:30:04;20.50;99.90
8593;DHT22;4334;49.982;8.398;2023-07-31T06:32:31;20.60;99.90
8593;DHT22;4334;49.982;8.398;2023-07-31T06:34:57;20.30;99.90
8593;DHT22;4334;49.982;8.398;2023-07-31T06:37:29;20.50;99.90
8593;DHT22;4334;49.982;8.398;2023-07-31T06:39:55;20.70;99.90
8593;DHT22;4334;49.982;8.398;2023-07-31T06:42:22;20.90;99.90
8593;DHT22;4334;49.982;8.398;2023-07-31T06:44:49;20.90;99.90
8593;DHT22;4334;49.982;8.398;2023-07-31T06:47:16;24.40;99.90
8593;DHT22;4334;49.982;8.398;2023-07-31T06:49:43;21.60;99.90
8593;DHT22;4334;49.982;8.398;2023-07-31T06:52:10;21.90;99.90
8593;DHT22;4334;49.982;8.398;2023-07-31T06:54:38;21.70;99.90
8593;DHT22;4334;49.982;8.398;2023-07-31T06:57:06;21.50;99.90
8593;DHT22;4334;49.982;8.398;2023-07-31T06:59:33;21.30;99.90
8593;DHT22;4334;49.982;8.398;2023-07-31T07:02:00;20.80;99.90
8593;DHT22;4334;49.982;8.398;2023-07-31T07:04:26;20.50;99.90
8593;DHT22;4334;49.982;8.398;2023-07-31T07:06:53;20.30;99.90
8593;DHT22;4334;49.982;8.398;2023-07-31T07:09:20;20.20;99.90
8593;DHT22;4334;49.982;8.398;2023-07-31T07:11:48;20.50;99.90
8593;DHT22;4334;49.982;8.398;2023-07-31T07:14:15;20.30;99.90
8593;DHT22;4334;49.982;8.398;2023-07-31T07:16:41;20.40;99.90
8593;DHT22;4334;49.982;8.398;2023-07-31T07:19:08;20.60;99.90
8593;DHT22;4334;49.982;8.398;2023-07-31T07:21:35;20.80;99.90
8593;DHT22;4334;49.982;8.398;2023-07-31T07:24:01;21.30;99.90
8593;DHT22;4334;49.982;8.398;2023-07-31T07:26:28;21.70;99.90
8593;DHT22;4334;49.982;8.398;2023-07-31T07:28:56;22.00;99.90
8593;DHT22;4334;49.982;8.398;2023-07-31T07:31:23;22.00;99.90
8593;DHT22;4334;49.982;8.398;2023-07-31T07:33:50;22.20;99.90
8593;DHT22;4334;49.982;8.398;2023-07-31T07:36:17;24.90;99.90
8593;DHT22;4334;49.982;8.398;2023-07-31T07:38:44;22.80;99.90
8593;DHT22;4334;49.982;8.398;2023-07-31T07:41:11;22.80;99.90
8593;DHT22;4334;49.982;8.398;2023-07-31T07:43:37;22.70;99.90
8593;DHT22;4334;49.982;8.398;2023-07-31T07:46:05;22.90;99.90
8593;DHT22;4334;49.982;8.398;2023-07-31T07:48:32;22.70;99.90
8593;DHT22;4334;49.982;8.398;2023-07-31T07:50:59;22.80;99.90
8593;DHT22;4334;49.982;8.398;2023-07-31T07:53:26;22.70;99.90
8593;DHT22;4334;49.982;8.398;2023-07-31T07:55:52;23.40;99.90
8593;DHT22;4334;49.982;8.398;2023-07-31T07:58:19;23.40;99.90
8593;DHT22;4334;49.982;8.398;2023-07-31T08:00:48;23.80;99.90
8593;DHT22;4334;49.982;8.398;2023-07-31T08:03:17;23.60;99.90
8593;DHT22;4334;49.982;8.398;2023-07-31T08:05:44;24.20;99.90
8593;DHT22;4334;49.982;8.398;2023-07-31T08:08:14;22.60;99.90
8593;DHT22;4334;49.982;8.398;2023-07-31T08:10:41;23.00;99.90
8593;DHT22;4334;49.982;8.398;2023-07-31T08:13:09;22.60;99.90
8593;DHT22;4334;49.982;8.398;2023-07-31T08:15:35;22.50;99.90
8593;DHT22;4334;49.982;8.398;2023-07-31T08:18:02;22.50;99.90
8593;DHT22;4334;49.982;8.398;2023-07-31T08:20:30;22.60;99.90
8593;DHT22;4334;49.982;8.398;2023-07-31T08:22:57;22.40;99.90
8593;DHT22;4334;49.982;8.398;2023-07-31T08:25:24;27.10;99.90
8593;DHT22;4334;49.982;8.398;2023-07-31T08:27:51;22.70;99.90
8593;DHT22;4334;49.982;8.398;2023-07-31T08:30:19;23.40;99.90
8593;DHT22;4334;49.982;8.398;2023-07-31T08:32:46;23.40;99.90
8593;DHT22;4334;49.982;8.398;2023-07-31T08:35:12;23.60;99.90
8593;DHT22;4334;49.982;8.398;2023-07-31T08:37:41;23.90;99.90
8593;DHT22;4334;49.982;8.398;2023-07-31T08:40:08;24.30;99.90
8593;DHT22;4334;49.982;8.398;2023-07-31T08:42:43;24.00;99.90
8593;DHT22;4334;49.982;8.398;2023-07-31T08:45:13;23.90;99.90
8593;DHT22;4334;49.982;8.398;2023-07-31T08:47:41;23.70;99.90
8593;DHT22;4334;49.982;8.398;2023-07-31T08:50:10;23.30;99.90
8593;DHT22;4334;49.982;8.398;2023-07-31T08:52:37;22.70;99.90
8593;DHT22;4334;49.982;8.398;2023-07-31T08:55:07;22.40;99.90
8593;DHT22;4334;49.982;8.398;2023-07-31T08:57:35;22.30;99.90
8593;DHT22;4334;49.982;8.398;2023-07-31T09:00:04;22.10;99.90
8593;DHT22;4334;49.982;8.398;2023-07-31T09:02:35;22.00;99.90
8593;DHT22;4334;49.982;8.398;2023-07-31T09:05:04;21.30;99.90
8593;DHT22;4334;49.982;8.398;2023-07-31T09:07:33;20.60;99.90
8593;DHT22;4334;49.982;8.398;2023-07-31T09:10:00;21.60;99.90
8593;DHT22;4334;49.982;8.398;2023-07-31T09:12:28;20.00;99.90
8593;DHT22;4334;49.982;8.398;2023-07-31T09:14:56;20.10;99.90
8593;DHT22;4334;49.982;8.398;2023-07-31T09:17:29;21.00;99.90
8593;DHT22;4334;49.982;8.398;2023-07-31T09:19:56;21.00;99.90
8593;DHT22;4334;49.982;8.398;2023-07-31T09:22:32;22.20;99.90
8593;DHT22;4334;49.982;8.398;2023-07-31T09:25:14;22.70;99.90
8593;DHT22;4334;49.982;8.398;2023-07-31T09:27:51;23.40;99.90
8593;DHT22;4334;49.982;8.398;2023-07-31T09:30:18;23.40;99.90
8593;DHT22;4334;49.982;8.398;2023-07-31T09:32:46;25.00;99.90
8593;DHT22;4334;49.982;8.398;2023-07-31T09:35:18;23.30;99.90
8593;DHT22;4334;49.982;8.398;2023-07-31T09:37:49;23.00;99.90
8593;DHT22;4334;49.982;8.398;2023-07-31T09:40:25;22.60;99.90
8593;DHT22;4334;49.982;8.398;2023-07-31T09:42:55;22.50;99.90
8593;DHT22;4334;49.982;8.398;2023-07-31T09:45:23;22.40;99.90
8593;DHT22;4334;49.982;8.398;2023-07-31T09:47:50;22.40;99.90
8593;DHT22;4334;49.982;8.398;2023-07-31T09:50:17;22.40;99.90
8593;DHT22;4334;49.982;8.398;2023-07-31T09:52:45;22.50;99.90
8593;DHT22;4334;49.982;8.398;2023-07-31T09:55:12;22.70;99.90
8593;DHT22;4334;49.982;8.398;2023-07-31T09:57:40;22.70;99.90
8593;DHT22;4334;49.982;8.398;2023-07-31T10:00:11;22.90;99.90
8593;DHT22;4334;49.982;8.398;2023-07-31T10:02:38;22.90;99.90
8593;DHT22;4334;49.982;8.398;2023-07-31T10:05:12;22.80;99.90
8593;DHT22;4334;49.982;8.398;2023-07-31T10:07:54;22.80;99.90
8593;DHT22;4334;49.982;8.398;2023-07-31T10:10:22;22.70;99.90
8593;DHT22;4334;49.982;8.398;2023-07-31T10:12:49;22.80;99.90
8593;DHT22;4334;49.982;8.398;2023-07-31T10:15:18;23.30;99.90
8593;DHT22;4334;49.982;8.398;2023-07-31T10:17:47;23.10;99.90
8593;DHT22;4334;49.982;8.398;2023-07-31T10:20:15;23.10;99.90
8593;DHT22;4334;49.982;8.398;2023-07-31T10:22:43;23.10;99.90
8593;DHT22;4334;49.982;8.398;2023-07-31T10:25:15;23.20;99.90
8593;DHT22;4334;49.982;8.398;2023-07-31T10:27:42;23.50;99.90
8593;DHT22;4334;49.982;8.398;2023-07-31T10:30:14;23.90;99.90
8593;DHT22;4334;49.982;8.398;2023-07-31T10:32:44;24.20;99.90
8593;DHT22;4334;49.982;8.398;2023-07-31T10:35:12;24.60;99.90
8593;DHT22;4334;49.982;8.398;2023-07-31T10:37:40;24.80;99.90
8593;DHT22;4334;49.982;8.398;2023-07-31T10:40:11;26.00;99.90
8593;DHT22;4334;49.982;8.398;2023-07-31T10:42:45;23.90;99.90
8593;DHT22;4334;49.982;8.398;2023-07-31T10:45:13;24.80;99.90
8593;DHT22;4334;49.982;8.398;2023-07-31T10:47:45;23.50;99.90
8593;DHT22;4334;49.982;8.398;2023-07-31T10:50:17;23.40;99.90
8593;DHT22;4334;49.982;8.398;2023-07-31T10:52:47;27.20;99.90
8593;DHT22;4334;49.982;8.398;2023-07-31T10:55:29;23.20;99.90
8593;DHT22;4334;49.982;8.398;2023-07-31T10:57:58;23.20;99.90
8593;DHT22;4334;49.982;8.398;2023-07-31T11:00:26;23.40;99.90
8593;DHT22;4334;49.982;8.398;2023-07-31T11:02:59;23.40;99.90
8593;DHT22;4334;49.982;8.398;2023-07-31T11:05:48;23.70;99.90
8593;DHT22;4334;49.982;8.398;2023-07-31T11:08:17;23.90;99.90
8593;DHT22;4334;49.982;8.398;2023-07-31T11:10:45;23.60;99.90
8593;DHT22;4334;49.982;8.398;2023-07-31T11:13:13;23.70;99.90
8593;DHT22;4334;49.982;8.398;2023-07-31T11:15:40;23.80;99.90
8593;DHT22;4334;49.982;8.398;2023-07-31T11:18:08;24.20;99.90
8593;DHT22;4334;49.982;8.398;2023-07-31T11:20:37;28.70;99.90
8593;DHT22;4334;49.982;8.398;2023-07-31T11:23:06;24.80;99.90
8593;DHT22;4334;49.982;8.398;2023-07-31T11:25:34;24.70;99.90
8593;DHT22;4334;49.982;8.398;2023-07-31T11:28:05;24.50;99.90
8593;DHT22;4334;49.982;8.398;2023-07-31T11:30:32;24.20;99.90
8593;DHT22;4334;49.982;8.398;2023-07-31T11:33:01;24.00;99.90
8593;DHT22;4334;49.982;8.398;2023-07-31T11:35:31;24.00;99.90
8593;DHT22;4334;49.982;8.398;2023-07-31T11:37:58;24.50;99.90
8593;DHT22;4334;49.982;8.398;2023-07-31T11:40:25;24.70;99.90
8593;DHT22;4334;49.982;8.398;2023-07-31T11:42:58;23.70;99.90
8593;DHT22;4334;49.982;8.398;2023-07-31T11:45:26;23.90;99.90
8593;DHT22;4334;49.982;8.398;2023-07-31T11:47:54;24.00;99.90
8593;DHT22;4334;49.982;8.398;2023-07-31T11:50:22;26.00;99.90
8593;DHT22;4334;49.982;8.398;2023-07-31T11:52:54;24.40;99.90
8593;DHT22;4334;49.982;8.398;2023-07-31T11:55:22;24.50;99.90
8593;DHT22;4334;49.982;8.398;2023-07-31T11:57:50;24.80;99.90
8593;DHT22;4334;49.982;8.398;2023-07-31T12:00:17;27.80;99.90
8593;DHT22;4334;49.982;8.398;2023-07-31T12:02:44;24.40;99.90
8593;DHT22;4334;49.982;8.398;2023-07-31T12:05:12;27.60;99.90
8593;DHT22;4334;49.982;8.398;2023-07-31T12:07:46;24.50;99.90
8593;DHT22;4334;49.982;8.398;2023-07-31T12:10:24;24.50;99.90
8593;DHT22;4334;49.982;8.398;2023-07-31T12:13:00;24.60;99.90
8593;DHT22;4334;49.982;8.398;2023-07-31T12:15:37;25.00;99.90
8593;DHT22;4334;49.982;8.398;2023-07-31T12:18:06;24.10;99.90
8593;DHT22;4334;49.982;8.398;2023-07-31T12:20:33;23.80;99.90
8593;DHT22;4334;49.982;8.398;2023-07-31T12:23:01;23.70;99.90
8593;DHT22;4334;49.982;8.398;2023-07-31T12:25:33;23.90;99.90
8593;DHT22;4334;49.982;8.398;2023-07-31T12:28:05;23.90;99.90
8593;DHT22;4334;49.982;8.398;2023-07-31T12:30:37;23.70;99.90
8593;DHT22;4334;49.982;8.398;2023-07-31T12:33:05;23.70;99.90
8593;DHT22;4334;49.982;8.398;2023-07-31T12:35:36;23.60;99.90
8593;DHT22;4334;49.982;8.398;2023-07-31T12:38:03;23.70;99.90
8593;DHT22;4334;49.982;8.398;2023-07-31T12:40:30;23.70;99.90
8593;DHT22;4334;49.982;8.398;2023-07-31T12:43:01;24.40;99.90
8593;DHT22;4334;49.982;8.398;2023-07-31T12:45:29;28.50;99.90
8593;DHT22;4334;49.982;8.398;2023-07-31T12:47:56;24.10;99.90
8593;DHT22;4334;49.982;8.398;2023-07-31T12:50:23;24.40;99.90
8593;DHT22;4334;49.982;8.398;2023-07-31T12:52:51;24.60;99.90
8593;DHT22;4334;49.982;8.398;2023-07-31T12:55:17;25.10;99.90
8593;DHT22;4334;49.982;8.398;2023-07-31T12:57:44;25.30;99.90
8593;DHT22;4334;49.982;8.398;2023-07-31T13:00:13;25.50;99.90
8593;DHT22;4334;49.982;8.398;2023-07-31T13:02:40;25.00;99.90
8593;DHT22;4334;49.982;8.398;2023-07-31T13:05:08;24.80;99.90
8593;DHT22;4334;49.982;8.398;2023-07-31T13:07:35;24.70;99.90
8593;DHT22;4334;49.982;8.398;2023-07-31T13:10:02;24.60;99.90
8593;DHT22;4334;49.982;8.398;2023-07-31T13:12:29;24.70;99.90
8593;DHT22;4334;49.982;8.398;2023-07-31T13:14:56;24.70;99.90
8593;DHT22;4334;49.982;8.398;2023-07-31T13:17:24;24.50;99.90
8593;DHT22;4334;49.982;8.398;2023-07-31T13:19:52;24.50;99.90
8593;DHT22;4334;49.982;8.398;2023-07-31T13:22:19;24.30;99.90
8593;DHT22;4334;49.982;8.398;2023-07-31T13:24:46;24.20;99.90
8593;DHT22;4334;49.982;8.398;2023-07-31T13:27:13;24.10;99.90
8593;DHT22;4334;49.982;8.398;2023-07-31T13:29:42;24.30;99.90
8593;DHT22;4334;49.982;8.398;2023-07-31T13:35:46;24.40;99.90
8593;DHT22;4334;49.982;8.398;2023-07-31T13:38:14;24.80;99.90
8593;DHT22;4334;49.982;8.398;2023-07-31T13:40:41;23.70;99.90
8593;DHT22;4334;49.982;8.398;2023-07-31T13:43:07;23.60;99.90
8593;DHT22;4334;49.982;8.398;2023-07-31T13:45:34;23.60;99.90
8593;DHT22;4334;49.982;8.398;2023-07-31T13:48:01;23.80;99.90
8593;DHT22;4334;49.982;8.398;2023-07-31T13:50:28;23.90;99.90
8593;DHT22;4334;49.982;8.398;2023-07-31T13:52:56;23.90;99.90
8593;DHT22;4334;49.982;8.398;2023-07-31T13:55:22;24.10;99.90
8593;DHT22;4334;49.982;8.398;2023-07-31T13:57:49;24.20;99.90
8593;DHT22;4334;49.982;8.398;2023-07-31T14:00:16;24.00;99.90
8593;DHT22;4334;49.982;8.398;2023-07-31T14:02:43;23.70;99.90
8593;DHT22;4334;49.982;8.398;2023-07-31T14:05:10;23.70;99.90
8593;DHT22;4334;49.982;8.398;2023-07-31T14:07:37;23.50;99.90
8593;DHT22;4334;49.982;8.398;2023-07-31T14:10:06;23.20;99.90
8593;DHT22;4334;49.982;8.398;2023-07-31T14:12:33;23.00;99.90
8593;DHT22;4334;49.982;8.398;2023-07-31T14:14:59;22.90;99.90
8593;DHT22;4334;49.982;8.398;2023-07-31T14:17:26;22.80;99.90
8593;DHT22;4334;49.982;8.398;2023-07-31T14:19:53;22.70;99.90
8593;DHT22;4334;49.982;8.398;2023-07-31T14:22:28;22.70;99.90
8593;DHT22;4334;49.982;8.398;2023-07-31T14:24:55;22.70;99.90
8593;DHT22;4334;49.982;8.398;2023-07-31T14:27:23;22.70;99.90
8593;DHT22;4334;49.982;8.398;2023-07-31T14:29:51;22.70;99.90
8593;DHT22;4334;49.982;8.398;2023-07-31T14:32:18;22.70;99.90
8593;DHT22;4334;49.982;8.398;2023-07-31T14:34:45;22.90;99.90
8593;DHT22;4334;49.982;8.398;2023-07-31T14:37:11;22.90;99.90
8593;DHT22;4334;49.982;8.398;2023-07-31T14:39:38;22.90;99.90
8593;DHT22;4334;49.982;8.398;2023-07-31T14:42:05;22.80;99.90
8593;DHT22;4334;49.982;8.398;2023-07-31T14:44:33;19.40;99.90
8593;DHT22;4334;49.982;8.398;2023-07-31T14:47:00;22.70;99.90
8593;DHT22;4334;49.982;8.398;2023-07-31T14:49:27;22.70;99.90
8593;DHT22;4334;49.982;8.398;2023-07-31T14:51:54;22.70;99.90
8593;DHT22;4334;49.982;8.398;2023-07-31T14:54:21;22.80;99.90
8593;DHT22;4334;49.982;8.398;2023-07-31T14:56:48;22.90;99.90
8593;DHT22;4334;49.982;8.398;2023-07-31T14:59:15;22.70;99.90
8593;DHT22;4334;49.982;8.398;2023-07-31T15:01:43;22.60;99.90
8593;DHT22;4334;49.982;8.398;2023-07-31T15:04:10;22.60;99.90
8593;DHT22;4334;49.982;8.398;2023-07-31T15:06:36;22.60;99.90
8593;DHT22;4334;49.982;8.398;2023-07-31T15:09:03;27.40;99.90
8593;DHT22;4334;49.982;8.398;2023-07-31T15:11:30;22.90;99.90
8593;DHT22;4334;49.982;8.398;2023-07-31T15:13:56;24.70;99.90
8593;DHT22;4334;49.982;8.398;2023-07-31T15:16:23;23.10;99.90
8593;DHT22;4334;49.982;8.398;2023-07-31T15:18:51;22.90;99.90
8593;DHT22;4334;49.982;8.398;2023-07-31T15:21:18;22.70;99.90
8593;DHT22;4334;49.982;8.398;2023-07-31T15:23:45;22.70;99.90
8593;DHT22;4334;49.982;8.398;2023-07-31T15:26:12;22.50;99.90
8593;DHT22;4334;49.982;8.398;2023-07-31T15:28:38;22.40;99.90
8593;DHT22;4334;49.982;8.398;2023-07-31T15:31:05;22.30;99.90
8593;DHT22;4334;49.982;8.398;2023-07-31T15:33:32;22.20;99.90
8593;DHT22;4334;49.982;8.398;2023-07-31T15:36:00;22.20;99.90
8593;DHT22;4334;49.982;8.398;2023-07-31T15:38:27;22.10;99.90
8593;DHT22;4334;49.982;8.398;2023-07-31T15:40:53;22.20;99.90
8593;DHT22;4334;49.982;8.398;2023-07-31T15:43:21;23.40;99.90
8593;DHT22;4334;49.982;8.398;2023-07-31T15:45:48;22.40;99.90
8593;DHT22;4334;49.982;8.398;2023-07-31T15:48:14;22.40;99.90
8593;DHT22;4334;49.982;8.398;2023-07-31T15:50:41;22.40;99.90
8593;DHT22;4334;49.982;8.398;2023-07-31T15:53:09;22.20;99.90
8593;DHT22;4334;49.982;8.398;2023-07-31T15:55:36;22.00;99.90
8593;DHT22;4334;49.982;8.398;2023-07-31T15:58:03;22.00;99.90
8593;DHT22;4334;49.982;8.398;2023-07-31T16:00:29;21.90;99.90
8593;DHT22;4334;49.982;8.398;2023-07-31T16:02:56;21.90;99.90
8593;DHT22;4334;49.982;8.398;2023-07-31T16:05:23;21.90;99.90
8593;DHT22;4334;49.982;8.398;2023-07-31T16:07:49;22.00;99.90
8593;DHT22;4334;49.982;8.398;2023-07-31T16:10:17;22.00;99.90